Time;durP1;ratioP1;P1;durP2;ratioP2;P2;SDS_P1;SDS_P2;PMS_P1;PMS_P2;Temp;Humidity;BMP_temperature;BMP_pressure;BME280_temperature;BME280_humidity;BME280_pressure;Samples;Min_cycle;Max_cycle;Signal;HPM_P1;HPM_P2
2023/04/23 00:01:38;;;;;;;33.72;21.83;;;;;;;12.02;100.00;99830.31;8390990;28;20060;-60
2023/04/23 00:05:38;;;;;;;35.80;21.58;;;;;;;12.01;100.00;99834.03;8391150;28;20040;-60
2023/04/23 00:09:39;;;;;;;34.03;21.92;;;;;;;11.89;100.00;99826.22;8390748;28;20080;-59
2023/04/23 00:13:40;;;;;;;36.75;23.55;;;;;;;11.93;100.00;99831.31;8390978;28;20044;-58
2023/04/23 00:17:40;;;;;;;37.15;23.35;;;;;;;11.97;100.00;99827.25;8388086;28;20410;-59
2023/04/23 00:21:41;;;;;;;36.67;22.75;;;;;;;11.93;100.00;99826.75;8387418;28;20120;-59
2023/04/23 00:25:41;;;;;;;37.45;23.75;;;;;;;11.80;100.00;99829.06;8389690;28;20519;-58
2023/04/23 00:29:42;;;;;;;40.75;24.30;;;;;;;11.77;100.00;99832.09;8386638;28;20504;-58
2023/04/23 00:33:42;;;;;;;35.65;22.92;;;;;;;11.83;100.00;99826.88;8358871;28;20043;-60
2023/04/23 00:37:43;;;;;;;41.63;23.08;;;;;;;11.82;100.00;99825.19;8356599;28;20032;-59
2023/04/23 00:41:44;;;;;;;39.38;23.55;;;;;;;11.72;100.00;99824.47;8387942;28;20237;-58
2023/04/23 00:45:44;;;;;;;38.45;23.73;;;;;;;11.59;100.00;99823.25;8390864;28;20094;-58
2023/04/23 00:49:45;;;;;;;38.30;23.80;;;;;;;11.50;100.00;99819.63;8390543;28;20028;-58
2023/04/23 00:53:46;;;;;;;44.08;26.02;;;;;;;11.46;100.00;99818.28;8389647;28;20029;-58
2023/04/23 00:57:47;;;;;;;41.40;24.65;;;;;;;11.42;100.00;99810.63;8389745;28;20453;-58
2023/04/23 01:01:48;;;;;;;40.78;24.60;;;;;;;11.38;100.00;99799.28;8388383;28;20081;-59
2023/04/23 01:05:49;;;;;;;45.75;26.77;;;;;;;11.38;100.00;99798.44;8389192;28;20040;-58
2023/04/23 01:09:50;;;;;;;48.03;26.80;;;;;;;11.40;100.00;99797.28;8389779;28;20455;-58
2023/04/23 01:13:51;;;;;;;41.97;25.83;;;;;;;11.36;100.00;99795.06;8390665;28;20055;-59
2023/04/23 01:17:52;;;;;;;46.40;26.55;;;;;;;11.35;100.00;99799.59;8391101;28;20525;-59
2023/04/23 01:21:53;;;;;;;48.75;27.20;;;;;;;11.29;100.00;99800.25;8390622;28;20388;-63
2023/04/23 01:25:53;;;;;;;50.28;28.38;;;;;;;11.22;100.00;99799.22;8390921;28;20071;-61
2023/04/23 01:29:55;;;;;;;48.30;28.30;;;;;;;11.21;100.00;99796.69;8390771;28;20438;-58
2023/04/23 01:33:57;;;;;;;49.92;28.88;;;;;;;11.19;100.00;99796.84;8390829;28;20037;-59
2023/04/23 01:38:00;;;;;;;53.08;30.13;;;;;;;11.09;100.00;99797.97;8391284;28;20127;-59
2023/04/23 01:42:01;;;;;;;53.60;29.60;;;;;;;11.00;100.00;99798.94;8390061;28;20040;-58
2023/04/23 01:46:02;;;;;;;53.60;29.48;;;;;;;10.93;100.00;99793.34;8390720;28;20067;-59
2023/04/23 01:50:04;;;;;;;57.67;30.40;;;;;;;10.90;100.00;99792.78;8389729;28;20090;-58
2023/04/23 01:54:04;;;;;;;59.28;33.28;;;;;;;10.83;100.00;99792.56;8387772;28;20044;-59
2023/04/23 01:58:05;;;;;;;58.03;32.35;;;;;;;10.74;100.00;99790.81;8389758;28;20345;-58
2023/04/23 02:02:09;;;;;;;59.58;32.45;;;;;;;10.55;100.00;99790.22;8389599;28;20040;-59
2023/04/23 02:06:10;;;;;;;57.75;31.25;;;;;;;10.56;100.00;99789.19;8423736;28;20040;-58
2023/04/23 02:10:11;;;;;;;62.17;33.25;;;;;;;10.58;100.00;99795.31;8423659;28;20398;-58
2023/04/23 02:14:13;;;;;;;63.45;33.88;;;;;;;10.59;100.00;99805.09;8423190;28;20039;-58
2023/04/23 02:18:13;;;;;;;67.53;34.50;;;;;;;10.56;100.00;99790.06;8422477;28;20051;-58
2023/04/23 02:22:16;;;;;;;62.33;33.65;;;;;;;10.51;100.00;99786.13;8420758;28;20036;-58
2023/04/23 02:26:17;;;;;;;61.38;33.95;;;;;;;10.55;100.00;99791.03;8423651;28;20051;-63
2023/04/23 02:30:18;;;;;;;62.55;33.85;;;;;;;10.54;100.00;99791.19;8423184;28;20081;-63
2023/04/23 02:34:18;;;;;;;67.13;34.35;;;;;;;10.52;100.00;99788.66;8423219;28;20044;-61
2023/04/23 02:38:19;;;;;;;67.55;33.60;;;;;;;10.45;100.00;99790.31;8419000;28;20065;-62
2023/04/23 02:42:19;;;;;;;62.63;32.85;;;;;;;10.46;100.00;99786.59;8420555;28;20043;-61
2023/04/23 02:46:20;;;;;;;59.13;33.80;;;;;;;10.38;100.00;99780.28;8421808;28;20055;-61
2023/04/23 02:50:20;;;;;;;58.50;32.08;;;;;;;10.40;100.00;99779.09;8422826;28;20395;-61
2023/04/23 02:54:21;;;;;;;59.08;32.03;;;;;;;10.36;100.00;99775.03;8422507;28;20064;-61
2023/04/23 02:58:21;;;;;;;50.60;28.77;;;;;;;10.40;100.00;99768.31;8422731;28;20036;-63
2023/04/23 03:02:24;;;;;;;56.42;31.52;;;;;;;10.52;100.00;99788.66;8421309;28;20127;-63
2023/04/23 03:06:25;;;;;;;62.30;31.80;;;;;;;10.58;100.00;99774.50;8426931;28;20517;-63
2023/04/23 03:10:26;;;;;;;52.47;28.58;;;;;;;10.63;100.00;99765.94;8426581;28;20029;-63
2023/04/23 03:14:26;;;;;;;52.10;28.08;;;;;;;10.58;100.00;99762.88;8426430;28;20044;-63
2023/04/23 03:18:27;;;;;;;49.70;27.92;;;;;;;10.62;100.00;99759.69;8426590;28;20051;-63
2023/04/23 03:22:29;;;;;;;49.08;28.73;;;;;;;10.63;100.00;99764.09;8428281;28;20506;-58
2023/04/23 03:26:30;;;;;;;50.63;27.55;;;;;;;10.66;100.00;99758.34;8428706;28;20543;-59
2023/04/23 03:30:31;;;;;;;43.97;25.80;;;;;;;10.77;100.00;99755.38;8428821;28;20044;-58
2023/04/23 03:34:31;;;;;;;45.92;26.98;;;;;;;10.81;100.00;99750.50;8428423;28;20039;-59
2023/04/23 03:38:32;;;;;;;38.20;24.20;;;;;;;10.89;100.00;99755.97;8427321;28;20044;-58
2023/04/23 03:42:34;;;;;;;38.72;23.70;;;;;;;10.90;100.00;99744.13;8428066;28;20055;-59
2023/04/23 03:46:35;;;;;;;36.22;22.83;;;;;;;10.95;100.00;99745.31;8428321;28;20040;-59
2023/04/23 03:50:39;;;;;;;37.55;24.60;;;;;;;10.92;100.00;99742.94;8428046;28;20040;-58
2023/04/23 03:54:49;;;;;;;36.08;24.20;;;;;;;10.90;100.00;99744.97;8426936;28;20436;-58
2023/04/23 03:58:51;;;;;;;40.35;25.00;;;;;;;10.88;100.00;99746.13;8427460;28;20059;-59
2023/04/23 04:02:52;;;;;;;39.80;24.58;;;;;;;10.89;100.00;99748.66;8427515;28;20490;-58
2023/04/23 04:06:52;;;;;;;36.47;24.08;;;;;;;10.87;100.00;99742.59;8427699;28;20036;-58
2023/04/23 04:10:53;;;;;;;38.03;22.95;;;;;;;10.92;100.00;99748.34;8427584;28;20032;-58
2023/04/23 04:14:53;;;;;;;36.95;23.67;;;;;;;10.89;100.00;99743.25;8425724;28;20044;-58
2023/04/23 04:18:54;;;;;;;36.25;23.13;;;;;;;10.91;100.00;99746.66;8424687;27;20028;-58
2023/04/23 04:22:55;;;;;;;38.55;22.42;;;;;;;10.98;100.00;99746.88;8425405;28;20036;-58
2023/04/23 04:26:55;;;;;;;37.85;23.23;;;;;;;11.02;100.00;99749.09;8426318;28;20410;-58
2023/04/23 04:30:56;;;;;;;34.10;22.15;;;;;;;10.99;100.00;99741.31;8426662;28;20067;-58
2023/04/23 04:34:56;;;;;;;31.70;21.15;;;;;;;10.95;100.00;99737.22;8426722;28;20032;-59
2023/04/23 04:38:57;;;;;;;36.65;21.33;;;;;;;11.02;100.00;99746.41;8426303;28;20513;-59
2023/04/23 04:42:59;;;;;;;34.58;20.83;;;;;;;11.10;100.00;99751.81;8426247;28;20040;-58
2023/04/23 04:46:59;;;;;;;36.67;21.17;;;;;;;11.12;100.00;99749.81;8424955;28;20060;-58
2023/04/23 04:50:59;;;;;;;30.65;20.20;;;;;;;11.18;100.00;99751.88;8426212;28;20047;-58
2023/04/23 04:55:00;;;;;;;31.15;21.30;;;;;;;11.19;100.00;99750.84;8426188;28;20039;-58
2023/04/23 04:59:01;;;;;;;29.05;19.95;;;;;;;11.25;100.00;99754.75;8425543;28;20067;-58
2023/04/23 05:03:01;;;;;;;33.00;21.25;;;;;;;11.29;100.00;99746.13;8425716;28;20494;-59
2023/04/23 05:07:02;;;;;;;32.45;19.63;;;;;;;11.35;100.00;99756.31;8424121;28;20040;-61
2023/04/23 05:11:03;;;;;;;30.65;19.00;;;;;;;11.39;100.00;99752.28;8424367;28;20139;-61
2023/04/23 05:15:04;;;;;;;31.25;19.92;;;;;;;11.52;100.00;99749.09;8425321;28;20036;-61
2023/04/23 05:19:05;;;;;;;25.27;18.52;;;;;;;11.61;100.00;99753.50;8425528;28;20111;-61
2023/04/23 05:23:05;;;;;;;27.73;18.90;;;;;;;11.62;100.00;99747.97;8419893;28;20044;-61
2023/04/23 05:27:06;;;;;;;29.00;18.55;;;;;;;11.69;100.00;99750.88;8424064;28;20040;-61
2023/04/23 05:31:06;;;;;;;26.15;19.08;;;;;;;11.76;100.00;99755.44;8423619;28;20039;-61
2023/04/23 05:35:07;;;;;;;27.23;18.25;;;;;;;11.88;100.00;99748.69;8423985;28;20101;-61
2023/04/23 05:39:08;;;;;;;27.35;17.38;;;;;;;12.01;100.00;99747.34;8424363;28;20090;-61
2023/04/23 05:43:08;;;;;;;26.38;16.63;;;;;;;12.17;100.00;99748.19;8423765;28;20060;-61
2023/04/23 05:47:10;;;;;;;23.75;16.83;;;;;;;12.26;100.00;99743.63;8423047;28;20047;-61
2023/04/23 05:51:12;;;;;;;23.75;16.10;;;;;;;12.38;100.00;99750.41;8423816;28;20502;-61
2023/04/23 05:55:14;;;;;;;23.05;15.07;;;;;;;12.50;100.00;99754.47;8421241;28;20032;-61
2023/04/23 05:59:15;;;;;;;20.92;14.82;;;;;;;12.72;100.00;99748.31;8424109;28;20049;-61
2023/04/23 06:03:15;;;;;;;17.45;13.55;;;;;;;12.90;100.00;99752.47;8375295;28;20154;-61
2023/04/23 06:07:16;;;;;;;16.50;12.45;;;;;;;13.10;100.00;99752.97;8359210;28;20070;-61
2023/04/23 06:11:17;;;;;;;14.88;11.15;;;;;;;13.18;100.00;99732.06;8356985;28;20040;-61
2023/04/23 06:15:17;;;;;;;13.57;10.00;;;;;;;13.53;100.00;99744.28;8357185;28;20116;-61
2023/04/23 06:19:18;;;;;;;11.73;10.05;;;;;;;13.74;100.00;99744.50;8356954;28;20037;-61
2023/04/23 06:23:19;;;;;;;15.18;9.15;;;;;;;13.97;100.00;99748.09;8379741;28;20245;-61
2023/04/23 06:27:19;;;;;;;12.65;9.15;;;;;;;14.15;100.00;99745.88;8389078;28;20040;-61
2023/04/23 06:31:23;;;;;;;14.07;8.90;;;;;;;14.19;100.00;99743.66;8383952;28;20043;-61
2023/04/23 06:35:24;;;;;;;10.43;8.80;;;;;;;14.32;100.00;99746.63;8366537;28;20153;-61
2023/04/23 06:39:25;;;;;;;12.15;7.60;;;;;;;14.40;100.00;99747.41;8395257;28;20060;-61
2023/04/23 06:43:25;;;;;;;10.00;7.13;;;;;;;14.51;99.57;99752.41;8389360;28;20119;-61
2023/04/23 06:47:48;;;;;;;7.72;6.55;;;;;;;14.59;98.88;99733.28;8387924;28;20040;-61
2023/04/23 06:51:49;;;;;;;7.93;6.35;;;;;;;14.75;97.64;99727.69;8388601;28;20469;-61
2023/04/23 06:55:50;;;;;;;12.13;6.05;;;;;;;14.88;97.70;99733.31;8412358;28;20096;-61
2023/04/23 06:59:50;;;;;;;7.70;5.85;;;;;;;14.94;95.68;99732.56;8369624;28;20059;-61
2023/04/23 07:03:55;;;;;;;7.38;5.05;;;;;;;15.16;95.04;99722.63;8388200;28;20064;-61
2023/04/23 07:07:55;;;;;;;11.30;6.40;;;;;;;15.39;93.52;99724.22;8383421;28;20037;-61
2023/04/23 07:11:56;;;;;;;8.13;4.93;;;;;;;15.59;93.01;99730.72;8376565;28;20037;-61
2023/04/23 07:15:56;;;;;;;7.97;5.18;;;;;;;15.76;92.69;99723.16;8385248;28;20033;-61
2023/04/23 07:19:57;;;;;;;8.02;4.75;;;;;;;16.00;91.02;99719.22;8386036;28;22224;-58
2023/04/23 07:24:05;;;;;;;8.82;4.32;;;;;;;16.23;87.77;99708.97;8387184;28;20090;-58
2023/04/23 07:28:06;;;;;;;5.60;3.92;;;;;;;16.97;83.97;99705.56;8383616;28;20048;-58
2023/04/23 07:32:06;;;;;;;5.28;3.90;;;;;;;17.35;82.92;99704.06;8386545;28;20054;-61
2023/04/23 07:36:06;;;;;;;6.65;3.38;;;;;;;17.09;81.84;99712.13;8401522;28;20130;-61
2023/04/23 07:40:07;;;;;;;4.63;3.95;;;;;;;17.03;83.38;99712.94;8395893;28;20079;-61
2023/04/23 07:44:08;;;;;;;6.03;3.90;;;;;;;17.11;83.61;99701.88;8387265;28;20047;-61
2023/04/23 07:48:08;;;;;;;5.45;3.78;;;;;;;17.18;82.11;99705.47;8388989;28;20041;-61
2023/04/23 07:52:09;;;;;;;4.75;3.63;;;;;;;17.17;83.19;99703.78;8390913;28;20047;-61
2023/04/23 07:56:10;;;;;;;5.22;3.47;;;;;;;17.08;81.96;99707.72;8392502;28;20048;-61
2023/04/23 08:00:11;;;;;;;7.22;3.97;;;;;;;17.10;82.90;99702.88;8375291;28;20052;-61
2023/04/23 08:04:15;;;;;;;;;;;;;;;17.22;82.20;99698.53;8370815;28;20052;-61
2023/04/23 08:08:15;;;;;;;10.57;4.57;;;;;;;17.03;81.93;99685.63;8364766;28;19954;-61
2023/04/23 08:12:16;;;;;;;7.78;3.70;;;;;;;17.42;83.56;99691.28;8381507;28;20037;-62
2023/04/23 08:16:16;;;;;;;3.88;3.00;;;;;;;18.23;81.27;99696.53;8377344;28;20049;-61
2023/04/23 08:20:17;;;;;;;4.03;2.53;;;;;;;17.91;75.85;99680.94;8371290;28;20036;-61
2023/04/23 08:24:17;;;;;;;6.18;2.45;;;;;;;18.16;77.55;99690.22;8363510;28;20183;-61
2023/04/23 08:28:18;;;;;;;4.03;2.35;;;;;;;18.59;74.96;99675.09;8382388;28;20044;-61
2023/04/23 08:32:19;;;;;;;5.82;2.00;;;;;;;19.16;73.78;99661.44;8364559;28;20098;-63
2023/04/23 08:36:19;;;;;;;3.40;1.85;;;;;;;19.42;69.72;99661.38;8371440;28;20127;-63
2023/04/23 08:40:20;;;;;;;2.97;1.25;;;;;;;19.40;68.03;99658.00;8354830;28;20044;-63
2023/04/23 08:44:22;;;;;;;4.53;1.73;;;;;;;19.80;68.85;99660.53;8362902;28;20051;-63
2023/04/23 08:48:23;;;;;;;4.93;1.67;;;;;;;19.62;69.56;99663.16;8356825;28;20503;-63
2023/04/23 08:52:25;;;;;;;5.78;1.48;;;;;;;19.85;66.06;99663.47;8355482;28;20407;-63
2023/04/23 08:56:26;;;;;;;1.73;1.05;;;;;;;19.66;64.91;99661.66;8373548;28;20439;-63
2023/04/23 09:00:26;;;;;;;2.83;1.27;;;;;;;19.33;65.99;99665.44;8365521;28;20059;-63
2023/04/23 09:04:30;;;;;;;3.95;1.40;;;;;;;19.43;67.16;99663.06;8362228;28;21216;-64
2023/04/23 09:08:31;;;;;;;2.67;1.17;;;;;;;19.81;63.93;99653.97;8351908;28;20579;-63
2023/04/23 09:12:34;;;;;;;7.78;1.65;;;;;;;20.20;65.61;99653.72;8358613;28;20119;-63
2023/04/23 09:16:35;;;;;;;3.42;1.02;;;;;;;20.51;65.09;99645.44;8360611;28;20040;-63
2023/04/23 09:20:36;;;;;;;2.10;0.80;;;;;;;20.70;61.55;99644.41;8365396;28;20082;-63
2023/04/23 09:24:36;;;;;;;8.77;1.23;;;;;;;20.61;61.17;99643.00;8370279;28;20575;-63
2023/04/23 09:28:37;;;;;;;4.60;1.27;;;;;;;20.44;61.26;99640.03;8372331;28;20097;-63
2023/04/23 09:32:41;;;;;;;5.20;1.10;;;;;;;20.40;62.44;99638.78;8378511;28;20037;-63
2023/04/23 09:36:41;;;;;;;5.68;1.20;;;;;;;20.12;62.54;99641.13;8356517;28;20029;-63
2023/04/23 09:40:42;;;;;;;6.95;1.23;;;;;;;19.66;64.53;99626.00;8364410;28;20101;-62
2023/04/23 09:44:42;;;;;;;2.20;1.00;;;;;;;20.07;65.28;99626.38;8352684;28;20395;-62
2023/04/23 09:48:43;;;;;;;4.25;1.50;;;;;;;20.48;62.61;99629.41;8355182;28;20033;-63
2023/04/23 09:52:43;;;;;;;5.00;1.20;;;;;;;20.69;61.16;99621.59;8375614;28;20058;-62
2023/04/23 09:56:50;;;;;;;3.92;0.80;;;;;;;20.42;61.27;99620.16;8372060;28;20032;-62
2023/04/23 10:00:50;;;;;;;2.53;1.00;;;;;;;20.42;62.97;99619.31;8365927;28;20039;-63
2023/04/23 10:04:51;;;;;;;3.50;1.30;;;;;;;20.64;62.80;99620.56;8369858;28;20068;-62
2023/04/23 10:08:52;;;;;;;2.90;1.10;;;;;;;20.73;60.89;99616.47;8352118;28;20083;-63
2023/04/23 10:12:53;;;;;;;2.67;1.15;;;;;;;19.83;62.37;99610.72;8350896;28;20037;-63
2023/04/23 10:16:58;;;;;;;4.10;0.90;;;;;;;19.23;63.10;99607.47;8358901;28;20045;-61
2023/04/23 10:21:02;;;;;;;3.25;0.82;;;;;;;18.78;65.87;99618.59;8353031;28;20063;-59
2023/04/23 10:25:07;;;;;;;3.95;1.17;;;;;;;18.63;64.72;99620.75;8362196;28;20040;-59
2023/04/23 10:29:13;;;;;;;3.03;1.15;;;;;;;18.64;66.27;99611.47;8354484;28;20065;-60
2023/04/23 10:33:14;;;;;;;3.17;0.98;;;;;;;18.86;67.12;99616.47;8347487;28;20132;-61
2023/04/23 10:37:18;;;;;;;3.00;1.10;;;;;;;18.95;66.55;99609.69;8356750;28;20049;-61
2023/04/23 10:41:23;;;;;;;2.20;0.80;;;;;;;19.72;63.26;99601.28;8370142;28;20478;-61
2023/04/23 10:45:24;;;;;;;2.45;1.20;;;;;;;20.78;60.74;99592.75;8362626;28;20048;-61
2023/04/23 10:49:30;;;;;;;3.05;1.48;;;;;;;21.75;59.45;99589.81;8360715;28;20037;-61
2023/04/23 10:53:30;;;;;;;3.92;0.90;;;;;;;23.36;55.45;99577.91;8364923;28;20044;-58
2023/04/23 11:02:08;;;;;;;1.23;0.70;;;;;;;21.35;56.86;99583.19;8341890;27;20913;-58
2023/04/23 11:06:14;;;;;;;3.70;0.77;;;;;;;20.12;60.41;99575.25;8351596;28;20438;-58
2023/04/23 11:10:14;;;;;;;4.63;1.05;;;;;;;19.66;61.82;99573.91;8335716;28;20052;-58
2023/04/23 11:14:15;;;;;;;8.95;1.50;;;;;;;19.40;59.42;99573.03;8328698;28;20503;-58
2023/04/23 11:18:15;;;;;;;1.27;0.63;;;;;;;19.37;62.09;99565.25;8320800;28;20415;-58
2023/04/23 11:22:18;;;;;;;4.45;0.93;;;;;;;19.63;57.31;99558.75;8326395;28;20124;-58
2023/04/23 11:26:20;;;;;;;6.78;1.10;;;;;;;19.86;59.92;99558.16;8336359;28;20033;-58
2023/04/23 11:30:22;;;;;;;4.55;0.75;;;;;;;20.39;58.46;99548.38;8316102;28;20044;-58
2023/04/23 11:34:24;;;;;;;2.38;0.90;;;;;;;21.08;56.12;99549.69;8283151;28;20048;-58
2023/04/23 11:38:32;;;;;;;3.60;0.95;;;;;;;21.24;55.08;99542.72;8283971;28;20052;-58
2023/04/23 11:42:41;;;;;;;3.17;0.70;;;;;;;20.93;55.37;99540.16;8294828;28;20605;-58
2023/04/23 11:46:41;;;;;;;2.63;0.82;;;;;;;21.17;55.73;99525.50;8309042;28;20450;-58
2023/04/23 11:50:42;;;;;;;2.55;0.77;;;;;;;21.41;55.09;99524.50;8329328;28;20179;-58
2023/04/23 11:54:42;;;;;;;2.15;0.77;;;;;;;20.86;55.45;99500.94;8335577;28;20481;-58
2023/04/23 11:58:42;;;;;;;6.13;0.95;;;;;;;20.60;56.82;99515.00;8324748;28;20155;-58
2023/04/23 12:02:53;;;;;;;3.75;0.95;;;;;;;20.30;57.78;99492.09;8345046;28;20582;-60
2023/04/23 12:06:55;;;;;;;3.38;0.90;;;;;;;20.96;56.98;99490.25;8344075;28;20049;-59
2023/04/23 12:11:00;;;;;;;6.38;0.90;;;;;;;20.96;55.71;99484.75;8336835;28;20034;-59
2023/04/23 12:15:08;;;;;;;5.57;1.00;;;;;;;20.56;56.98;99461.59;8302257;28;20045;-59
2023/04/23 12:19:12;;;;;;;2.92;0.80;;;;;;;20.46;56.38;99464.06;8291294;28;20124;-60
2023/04/23 12:23:12;;;;;;;1.90;0.80;;;;;;;20.20;55.56;99454.22;8331784;28;20095;-59
2023/04/23 12:27:15;;;;;;;3.17;1.00;;;;;;;20.26;56.42;99444.22;8320745;28;20579;-61
2023/04/23 12:31:22;;;;;;;4.10;0.85;;;;;;;20.52;55.10;99449.41;8310109;28;20454;-62
2023/04/23 12:35:38;;;;;;;2.10;0.88;;;;;;;20.56;56.79;99456.09;8320192;28;20244;-61
2023/04/23 12:39:38;;;;;;;4.63;0.85;;;;;;;20.44;55.65;99445.06;8342313;28;20056;-61
2023/04/23 12:43:38;;;;;;;3.30;0.80;;;;;;;20.68;58.22;99437.78;8354848;28;20044;-62
2023/04/23 12:47:39;;;;;;;5.30;0.98;;;;;;;20.81;55.36;99429.34;8321781;28;20045;-62
2023/04/23 12:51:39;;;;;;;2.22;0.68;;;;;;;20.11;54.09;99424.50;8300788;28;20038;-61
2023/04/23 12:55:42;;;;;;;1.67;0.77;;;;;;;19.65;56.07;99418.66;8320023;28;20041;-61
2023/04/23 12:59:42;;;;;;;3.83;0.50;;;;;;;19.57;56.17;99410.75;8321507;28;20041;-61
2023/04/23 13:03:42;;;;;;;3.13;0.70;;;;;;;19.44;56.83;99406.19;8312675;28;20046;-62
2023/04/23 13:07:43;;;;;;;3.20;0.80;;;;;;;19.44;58.10;99409.78;8319130;28;20037;-62
2023/04/23 13:11:45;;;;;;;5.15;0.88;;;;;;;19.48;57.64;99401.13;8314406;28;20080;-62
2023/04/23 13:15:46;;;;;;;5.30;0.90;;;;;;;19.59;57.97;99403.09;8306711;28;20099;-61
2023/04/23 13:19:46;;;;;;;2.97;0.82;;;;;;;19.59;58.79;99392.13;8316030;28;20030;-63
2023/04/23 13:23:47;;;;;;;4.73;0.70;;;;;;;19.25;57.10;99391.56;8319158;28;20045;-63
2023/04/23 13:27:47;;;;;;;1.35;0.80;;;;;;;19.36;57.87;99374.44;8318536;28;20856;-60
2023/04/23 13:31:48;;;;;;;5.63;1.48;;;;;;;19.21;59.65;99373.91;8295558;28;20038;-60
2023/04/23 13:35:48;;;;;;;3.33;1.00;;;;;;;18.97;60.53;99363.75;8286658;28;20286;-60
2023/04/23 13:39:48;;;;;;;2.75;0.80;;;;;;;18.71;61.05;99355.75;8293447;28;20571;-60
2023/04/23 13:43:49;;;;;;;3.80;0.80;;;;;;;18.70;62.42;99348.56;8303679;28;20046;-60
2023/04/23 13:47:49;;;;;;;1.60;1.00;;;;;;;18.57;62.90;99332.25;8298610;28;20120;-60
2023/04/23 13:51:53;;;;;;;2.15;0.95;;;;;;;18.66;62.47;99330.91;8317296;28;20412;-60
2023/04/23 13:55:54;;;;;;;2.97;1.25;;;;;;;18.51;63.55;99319.44;8299894;28;20033;-59
2023/04/23 13:59:55;;;;;;;1.75;0.80;;;;;;;18.63;63.72;99312.19;8312855;28;20065;-60
2023/04/23 14:03:56;;;;;;;2.90;1.00;;;;;;;18.60;65.08;99304.44;8312140;28;20056;-60
2023/04/23 14:07:56;;;;;;;5.75;0.80;;;;;;;18.46;64.98;99291.06;8304176;28;20469;-59
2023/04/23 14:11:57;;;;;;;3.90;1.00;;;;;;;18.35;65.04;99278.88;8301454;28;20030;-60
2023/04/23 14:15:58;;;;;;;2.25;0.88;;;;;;;18.44;65.27;99268.53;8299494;28;20121;-59
2023/04/23 14:19:58;;;;;;;2.22;0.95;;;;;;;18.40;65.71;99259.94;8297807;28;20041;-60
2023/04/23 14:24:07;;;;;;;4.78;1.30;;;;;;;18.43;64.78;99259.50;8310817;28;20041;-59
2023/04/23 14:28:32;;;;;;;3.35;1.02;;;;;;;18.42;64.30;99254.25;8303889;28;20041;-59
2023/04/23 14:32:32;;;;;;;2.63;1.00;;;;;;;18.32;64.55;99251.97;8280970;28;20042;-59
2023/04/23 14:36:33;;;;;;;5.03;1.05;;;;;;;18.33;64.60;99241.84;8319503;28;20512;-59
2023/04/23 14:40:33;;;;;;;2.78;1.13;;;;;;;18.17;65.71;99232.28;8316986;28;20041;-59
2023/04/23 14:44:34;;;;;;;4.05;1.50;;;;;;;18.11;65.94;99233.16;8318514;28;20041;-59
2023/04/23 14:48:34;;;;;;;4.05;1.42;;;;;;;17.81;68.38;99237.53;8304791;28;20038;-59
2023/04/23 14:52:35;;;;;;;2.10;1.60;;;;;;;17.20;74.05;99239.00;8318011;28;20037;-59
2023/04/23 14:56:36;;;;;;;3.78;2.00;;;;;;;16.77;79.53;99237.81;8292621;28;20053;-59
2023/04/23 15:00:37;;;;;;;5.13;1.70;;;;;;;16.63;80.42;99244.31;8313567;28;20045;-60
2023/04/23 15:04:37;;;;;;;3.10;2.00;;;;;;;16.59;82.62;99252.09;8315456;28;20041;-60
2023/04/23 15:08:37;;;;;;;6.35;3.33;;;;;;;16.23;85.88;99243.44;8302731;28;20064;-60
2023/04/23 15:16:52;;;;;;;3.90;3.50;;;;;;;16.02;86.36;99231.84;8324197;27;20891;-59
2023/04/23 15:20:52;;;;;;;3.58;3.08;;;;;;;16.12;82.95;99237.72;8322423;28;20432;-59
2023/04/23 15:24:52;;;;;;;5.60;2.22;;;;;;;16.38;83.01;99238.59;8298046;28;20030;-60
2023/04/23 15:28:53;;;;;;;11.85;6.18;;;;;;;16.25;81.58;99237.78;8315480;28;20451;-60
2023/04/23 15:32:54;;;;;;;8.32;4.97;;;;;;;16.26;83.76;99231.28;8314129;28;20046;-60
2023/04/23 15:36:55;;;;;;;6.55;3.30;;;;;;;16.07;86.88;99232.91;8314363;28;20084;-59
2023/04/23 15:40:55;;;;;;;4.30;3.40;;;;;;;16.00;87.84;99244.84;8307947;28;20077;-59
2023/04/23 15:44:56;;;;;;;3.03;2.25;;;;;;;15.66;89.61;99257.53;8316445;28;20045;-59
2023/04/23 15:48:56;;;;;;;3.85;2.10;;;;;;;15.25;92.55;99242.22;8312626;28;20565;-60
2023/04/23 15:52:58;;;;;;;4.47;2.42;;;;;;;15.07;96.13;99259.06;8313565;28;21688;-61
2023/04/23 15:57:00;;;;;;;6.72;2.83;;;;;;;14.90;98.26;99251.41;8326866;28;20466;-61
2023/04/23 16:01:01;;;;;;;5.97;3.72;;;;;;;14.93;100.00;99262.75;8324956;28;20046;-61
2023/04/23 16:05:02;;;;;;;5.15;3.72;;;;;;;14.92;98.97;99250.22;8320575;28;20045;-59
2023/04/23 16:09:06;;;;;;;8.23;3.75;;;;;;;14.76;100.00;99234.16;8340190;28;20045;-61
2023/04/23 16:13:06;;;;;;;3.85;1.45;;;;;;;14.52;97.63;99196.53;8335791;28;20083;-59
2023/04/23 16:17:07;;;;;;;5.10;1.50;;;;;;;14.21;100.00;99187.88;8301222;28;20545;-58
2023/04/23 16:21:08;;;;;;;3.30;1.00;;;;;;;14.04;99.20;99193.78;8309571;28;20041;-59
2023/04/23 16:25:08;;;;;;;1.52;1.10;;;;;;;14.07;100.00;99193.41;8317893;28;20049;-58
2023/04/23 16:29:09;;;;;;;2.47;1.25;;;;;;;14.12;100.00;99199.91;8290397;28;20540;-60
2023/04/23 16:33:09;;;;;;;1.65;1.10;;;;;;;14.26;99.30;99174.59;8288665;28;20046;-60
2023/04/23 16:37:11;;;;;;;1.05;0.95;;;;;;;14.30;95.73;99151.41;8287929;28;20042;-61
2023/04/23 16:41:14;;;;;;;1.45;0.90;;;;;;;14.43;95.39;99164.25;8297471;28;20420;-59
2023/04/23 16:45:14;;;;;;;3.65;1.25;;;;;;;14.34;95.31;99144.53;8318948;28;20493;-60
2023/04/23 16:49:15;;;;;;;3.30;1.10;;;;;;;14.40;95.98;99145.63;8305003;28;20420;-62
2023/04/23 16:53:15;;;;;;;1.50;0.75;;;;;;;14.33;98.53;99139.31;8314084;28;20350;-61
2023/04/23 16:57:16;;;;;;;1.20;0.93;;;;;;;14.30;99.21;99132.34;8303623;28;20058;-62
2023/04/23 17:01:17;;;;;;;2.42;1.10;;;;;;;14.25;100.00;99115.81;8298311;28;20111;-62
2023/04/23 17:05:22;;;;;;;1.20;0.82;;;;;;;14.30;100.00;99107.91;8304875;28;20076;-62
2023/04/23 17:09:23;;;;;;;2.35;1.27;;;;;;;14.28;100.00;99120.88;8312818;28;20037;-61
2023/04/23 17:13:23;;;;;;;1.88;1.20;;;;;;;14.26;100.00;99113.94;8312905;28;20042;-62
2023/04/23 17:17:24;;;;;;;1.40;1.30;;;;;;;14.18;100.00;99109.44;8299590;28;20045;-62
2023/04/23 17:21:24;;;;;;;3.92;2.53;;;;;;;14.13;100.00;99111.94;8297326;28;20164;-64
2023/04/23 17:25:25;;;;;;;2.15;1.85;;;;;;;14.07;100.00;99107.28;8296372;28;20042;-64
2023/04/23 17:29:25;;;;;;;2.25;1.83;;;;;;;14.07;100.00;99101.00;8289110;28;20041;-64
2023/04/23 17:33:25;;;;;;;4.05;1.67;;;;;;;14.12;100.00;99093.94;8296794;28;20366;-63
2023/04/23 17:37:26;;;;;;;3.22;1.92;;;;;;;14.14;100.00;99081.00;8311330;28;20120;-64
2023/04/23 17:41:26;;;;;;;4.05;1.50;;;;;;;14.22;100.00;99082.72;8305668;28;20041;-64
2023/04/23 17:45:27;;;;;;;2.47;1.58;;;;;;;14.28;100.00;99069.22;8295837;28;20045;-64
2023/04/23 17:49:27;;;;;;;2.10;1.73;;;;;;;14.32;100.00;99073.22;8294714;28;20045;-64
2023/04/23 17:53:28;;;;;;;2.25;2.05;;;;;;;14.27;100.00;99064.78;8287848;28;20412;-64
2023/04/23 17:57:28;;;;;;;2.88;1.67;;;;;;;14.37;100.00;99054.44;8294156;28;20049;-64
2023/04/23 18:01:28;;;;;;;2.60;1.75;;;;;;;14.38;100.00;99050.66;8296188;28;20463;-64
2023/04/23 18:05:29;;;;;;;3.25;1.70;;;;;;;14.35;100.00;99056.50;8286526;28;20140;-64
2023/04/23 18:09:30;;;;;;;3.10;1.55;;;;;;;14.52;100.00;99057.81;8301020;28;20084;-65
2023/04/23 18:13:30;;;;;;;4.95;1.58;;;;;;;14.49;100.00;99060.94;8294727;28;20045;-62
2023/04/23 18:17:31;;;;;;;5.05;1.55;;;;;;;14.46;100.00;99058.66;8283060;28;20060;-62
2023/04/23 18:21:32;;;;;;;2.65;1.38;;;;;;;14.26;100.00;99049.53;8280968;28;20480;-62
2023/04/23 18:25:33;;;;;;;2.35;1.80;;;;;;;14.24;100.00;99065.19;8287089;28;20389;-64
2023/04/23 18:29:33;;;;;;;3.17;1.77;;;;;;;14.29;100.00;99070.88;8298234;28;20057;-64
2023/04/23 18:33:46;;;;;;;2.92;1.27;;;;;;;14.24;100.00;99070.63;8298320;28;20057;-64
2023/04/23 18:38:02;;;;;;;1.85;1.40;;;;;;;14.26;100.00;99071.28;8308968;28;20049;-64
2023/04/23 18:42:02;;;;;;;2.17;1.08;;;;;;;14.38;100.00;99066.13;8287734;28;20069;-64
2023/04/23 18:46:03;;;;;;;1.92;1.42;;;;;;;14.42;100.00;99084.56;8281684;28;20069;-64
2023/04/23 18:50:28;;;;;;;3.90;1.60;;;;;;;14.25;100.00;99072.34;8294119;28;20539;-64